Weather History for Wahoo, NE

Change the Weather History Date:

Tuesday, February 19, 2013

  Actual Average Record
Temperature  
Mean Temperature 18 °F -  
Max Temperature 27 °F 40 °F 67 °F (1981)
Min Temperature 10 °F 18 °F -12 °F (1978)
Degree Days  
Heating Degree Days 46    
Moisture  
Dew Point 5 °F    
Average Humidity 61    
Maximum Humidity 77    
Minimum Humidity 31    
Precipitation  
Precipitation 0.00 in - - ()
Sea Level Pressure  
Sea Level Pressure 30.26 in    
Wind  
Wind Speed 15 mph (NNW)    
Max Wind Speed 23 mph    
Max Gust Speed 32 mph    
Visibility 10 miles    
Events      
Averages and records for this station are not official NWS values.
T = Trace of Precipitation, MM = Missing Value Source: NWS Daily Summary

Daily Weather History Graph

Daily Weather History Graph

Search for Another Location

Airport:

Trip Planner

Search our weather history database for the weather conditions in past years. The results will help you decide how hot, cold, wet, or windy it might be!

Date:

Astronomy

Feb. 19, 2013 Rise Set
Actual Time 7:15 AM CST 6:05 PM CST
Civil Twilight 6:47 AM CST 6:33 PM CST
Nautical Twilight 6:15 AM CST 7:05 PM CST
Astronomical Twilight 5:43 AM CST 7:37 PM CST
Moon 12:36 PM CST (2/19) 2:49 AM CST (2/19)
Length of Visible Light 11h 46m
Length of Day
10h 50m
Waxing Gibbous, 67% of the Moon is Illuminated
Feb 19
Waxing Gibbous
Feb 25
Full
Mar 4
Last Quarter
Mar 11
New
Mar 19
First Quarter

Hourly Weather History & Observations

Time (CST) Temp. Windchill Dew Point Humidity Pressure Visibility Wind Dir Wind Speed Gust Speed Precip Events Conditions
12:15 AM 25.0 °F 11.7 °F 18.7 °F 77% 30.09 in 10.0 mi NNW 17.3 mph 24.2 mph N/A   Overcast
12:35 AM 23.5 °F 10.8 °F 16.9 °F 76% 30.09 in 10.0 mi NNW 15.0 mph 21.9 mph N/A   Mostly Cloudy
12:55 AM 21.9 °F 6.9 °F 15.1 °F 75% 30.10 in 10.0 mi NNW 19.6 mph 24.2 mph N/A   Mostly Cloudy
1:15 AM 20.3 °F 6.1 °F 13.5 °F 75% 30.11 in 10.0 mi NNW 16.1 mph 23.0 mph N/A   Scattered Clouds
1:35 AM 19.9 °F 6.2 °F 12.6 °F 73% 30.12 in 10.0 mi NW 15.0 mph 21.9 mph N/A   Clear
1:55 AM 19.4 °F 6.0 °F 12.2 °F 74% 30.12 in 10.0 mi NW 13.8 mph 21.9 mph N/A   Clear
2:15 AM 18.5 °F 3.8 °F 11.3 °F 73% 30.13 in 10.0 mi NNW 16.1 mph 21.9 mph N/A   Clear
2:35 AM 18.0 °F 1.3 °F 9.5 °F 70% 30.13 in 10.0 mi NNW 20.7 mph 29.9 mph N/A   Clear
2:55 AM 17.1 °F 2.0 °F 9.0 °F 71% 30.14 in 10.0 mi NW 16.1 mph 28.8 mph N/A   Clear
3:15 AM 16.3 °F 2.1 °F 9.3 °F 74% 30.16 in 10.0 mi NW 13.8 mph 24.2 mph N/A   Clear
3:35 AM 15.8 °F -0.2 °F 8.8 °F 74% 30.16 in 10.0 mi NNW 17.3 mph - N/A   Clear
3:55 AM 15.1 °F -0.6 °F 8.6 °F 76% 30.16 in 10.0 mi NW 16.1 mph - N/A   Clear
4:15 AM 14.9 °F 0.9 °F 8.4 °F 76% 30.17 in 10.0 mi NNW 12.7 mph 24.2 mph N/A   Clear
4:35 AM 14.0 °F -2.5 °F 7.5 °F 75% 30.18 in 10.0 mi NW 17.3 mph 24.2 mph N/A   Mostly Cloudy
4:55 AM 13.6 °F -3.0 °F 6.8 °F 74% 30.19 in 10.0 mi NNW 17.3 mph - N/A   Scattered Clouds
5:15 AM 13.1 °F -3.1 °F 6.6 °F 75% 30.19 in 10.0 mi NNW 16.1 mph 21.9 mph N/A   Scattered Clouds
5:55 AM 12.0 °F -2.7 °F 5.9 °F 76% 30.21 in 10.0 mi NNW 12.7 mph - N/A   Scattered Clouds
6:15 AM 11.8 °F -5.8 °F 5.0 °F 74% 30.21 in 10.0 mi NNW 18.4 mph 24.2 mph N/A   Clear
6:35 AM 11.3 °F -4.9 °F 4.5 °F 74% 30.22 in 10.0 mi NNW 15.0 mph 18.4 mph N/A   Clear
6:55 AM 10.9 °F -5.9 °F 4.1 °F 74% 30.22 in 10.0 mi NNW 16.1 mph 21.9 mph N/A   Clear
7:15 AM 10.4 °F -8.2 °F 3.0 °F 72% 30.24 in 10.0 mi NW 19.6 mph 26.5 mph N/A   Clear
7:35 AM 10.8 °F -7.2 °F 2.8 °F 70% 30.26 in 10.0 mi NW 18.4 mph 26.5 mph N/A   Clear
7:55 AM 10.9 °F -7.9 °F 2.1 °F 68% 30.27 in 10.0 mi NNW 20.7 mph 28.8 mph N/A   Clear
8:15 AM 10.9 °F -8.8 °F 1.9 °F 67% 30.27 in 10.0 mi NNW 23.0 mph 32.2 mph N/A   Clear
8:35 AM 11.3 °F -7.0 °F 2.5 °F 68% 30.29 in 10.0 mi NNW 19.6 mph 26.5 mph N/A   Clear
8:55 AM 12.0 °F -6.5 °F 2.7 °F 66% 30.31 in 10.0 mi NNW 20.7 mph 26.5 mph N/A   Clear
9:35 AM 13.6 °F -3.5 °F 3.6 °F 64% 30.31 in 10.0 mi NNW 18.4 mph 23.0 mph N/A   Clear
9:55 AM 14.7 °F -3.4 °F 3.9 °F 62% 30.31 in 10.0 mi NNW 21.9 mph - N/A   Clear
10:15 AM 15.6 °F -1.3 °F 3.7 °F 59% 30.32 in 10.0 mi NW 19.6 mph 24.2 mph N/A   Clear
10:35 AM 16.7 °F 1.0 °F 4.1 °F 58% 30.32 in 10.0 mi NNW 17.3 mph 26.5 mph N/A   Clear
10:55 AM 18.1 °F 5.6 °F 4.8 °F 56% 30.32 in 10.0 mi NW 11.5 mph 24.2 mph N/A   Clear
11:15 AM 19.6 °F 4.7 °F 4.8 °F 53% 30.32 in 10.0 mi NNW 17.3 mph 23.0 mph N/A   Clear
11:35 AM 20.3 °F 5.2 °F 4.6 °F 51% 30.32 in 10.0 mi NNW 18.4 mph 24.2 mph N/A   Clear
11:55 AM 21.4 °F 6.2 °F 5.2 °F 50% 30.32 in 10.0 mi NW 19.6 mph 25.3 mph N/A   Clear
12:15 PM 22.8 °F 8.1 °F 5.0 °F 47% 30.33 in 10.0 mi NNW 19.6 mph 25.3 mph N/A   Clear
12:35 PM 23.9 °F 10.8 °F 5.0 °F 44% 30.33 in 10.0 mi NNW 16.1 mph 21.9 mph N/A   Clear
12:55 PM 24.8 °F 11.1 °F 3.9 °F 41% 30.32 in 10.0 mi NNW 18.4 mph 23.0 mph N/A   Clear
1:15 PM 24.8 °F 11.9 °F 3.9 °F 41% 30.31 in 10.0 mi NNW 16.1 mph 23.0 mph N/A   Clear
1:35 PM 25.5 °F 13.3 °F 3.4 °F 39% 30.31 in 10.0 mi NNW 15.0 mph 21.9 mph N/A   Clear
1:55 PM 25.9 °F 13.8 °F 3.0 °F 38% 30.31 in 10.0 mi NW 15.0 mph 23.0 mph N/A   Clear
2:15 PM 26.4 °F 14.0 °F 2.7 °F 36% 30.30 in 10.0 mi NW 16.1 mph 21.9 mph N/A   Clear
2:35 PM 26.6 °F 15.7 °F 1.6 °F 34% 30.30 in 10.0 mi NNW 12.7 mph 23.0 mph N/A   Clear
2:55 PM 27.0 °F 16.1 °F 1.8 °F 34% 30.30 in 10.0 mi NNW 12.7 mph 25.3 mph N/A   Clear
3:15 PM 27.5 °F 17.4 °F 1.8 °F 33% 30.30 in 10.0 mi NW 11.5 mph 19.6 mph N/A   Clear
3:35 PM 27.5 °F 15.9 °F 1.0 °F 32% 30.30 in 10.0 mi NNW 15.0 mph 20.7 mph N/A   Clear
3:55 PM 27.7 °F 16.6 °F 0.5 °F 31% 30.30 in 10.0 mi NW 13.8 mph 21.9 mph N/A   Clear
4:15 PM 27.5 °F 16.8 °F 0.7 °F 32% 30.29 in 10.0 mi NNW 12.7 mph 20.7 mph N/A   Clear
4:35 PM 27.1 °F 15.9 °F 0.7 °F 32% 30.29 in 10.0 mi NNW 13.8 mph 19.6 mph N/A   Clear
4:55 PM 26.6 °F 15.2 °F -0.2 °F 31% 30.29 in 10.0 mi North 13.8 mph 17.3 mph N/A   Clear
5:15 PM 26.2 °F 15.2 °F 1.0 °F 34% 30.28 in 10.0 mi North 12.7 mph - N/A   Clear
6:35 PM 20.5 °F 9.2 °F 4.6 °F 50% 30.30 in 10.0 mi North 10.4 mph - N/A   Clear
6:55 PM 19.4 °F 7.2 °F 4.6 °F 53% 30.30 in 10.0 mi North 11.5 mph - N/A   Clear
7:15 PM 18.3 °F 9.1 °F 4.8 °F 56% 30.31 in 10.0 mi North 6.9 mph - N/A   Clear
7:35 PM 16.5 °F 6.0 °F 5.9 °F 63% 30.31 in 10.0 mi North 8.1 mph - N/A   Clear
7:55 PM 16.7 °F 5.3 °F 6.1 °F 63% 30.31 in 10.0 mi North 9.2 mph - N/A   Clear
8:15 PM 16.2 °F 3.2 °F 5.5 °F 63% 30.31 in 10.0 mi North 11.5 mph - N/A   Clear
8:35 PM 15.3 °F 4.4 °F 5.4 °F 65% 30.32 in 10.0 mi North 8.1 mph - N/A   Clear
8:55 PM 13.8 °F 2.7 °F 5.9 °F 71% 30.32 in 10.0 mi North 8.1 mph - N/A   Clear
9:15 PM 13.1 °F 4.0 °F 5.2 °F 71% 30.33 in 10.0 mi North 5.8 mph - N/A   Clear
9:55 PM 11.5 °F 3.5 °F 5.0 °F 75% 30.36 in 10.0 mi WNW 4.6 mph - N/A   Clear
10:15 PM 11.3 °F 1.9 °F 3.9 °F 72% 30.36 in 10.0 mi NNW 5.8 mph - N/A   Clear
10:35 PM 11.3 °F 0.7 °F 4.5 °F 74% 30.35 in 10.0 mi North 6.9 mph - N/A   Clear
10:55 PM 10.8 °F 1.2 °F 3.7 °F 73% 30.37 in 10.0 mi NW 5.8 mph - N/A   Clear
11:15 PM 10.8 °F 0.0 °F 3.6 °F 73% 30.37 in 10.0 mi NNW 6.9 mph - N/A   Clear
11:35 PM 10.9 °F -0.8 °F 3.7 °F 73% 30.36 in 10.0 mi North 8.1 mph - N/A   Clear
11:55 PM 10.4 °F -2.4 °F 3.2 °F 73% 30.36 in 10.0 mi North 9.2 mph - N/A   Clear